Time;durP1;ratioP1;P1;durP2;ratioP2;P2;SDS_P1;SDS_P2;PMS_P1;PMS_P2;Temp;Humidity;BMP_temperature;BMP_pressure;BME280_temperature;BME280_humidity;BME280_pressure;Samples;Min_cycle;Max_cycle;Signal;HPM_P1;HPM_P2
2022/11/20 00:00:39;;;;;;;14.77;7.47;;;;;;;13.77;74.96;94539.16;5059545;28;20094;-77
2022/11/20 00:03:05;;;;;;;12.63;7.25;;;;;;;13.36;75.26;94459.53;5037280;28;20098;-76
2022/11/20 00:05:32;;;;;;;12.88;7.53;;;;;;;13.46;74.99;94475.25;5041097;28;20048;-76
2022/11/20 00:07:58;;;;;;;12.27;7.68;;;;;;;13.67;74.30;94515.44;5040943;28;20713;-76
2022/11/20 00:10:23;;;;;;;14.63;7.07;;;;;;;13.81;74.22;94526.78;5058861;28;20044;-76
2022/11/20 00:12:49;;;;;;;12.60;6.43;;;;;;;13.72;74.44;94509.22;5068298;28;20094;-77
2022/11/20 00:15:15;;;;;;;13.63;6.78;;;;;;;13.92;73.78;94540.63;5058684;28;20807;-76
2022/11/20 00:17:40;;;;;;;11.95;6.03;;;;;;;13.58;72.89;94469.34;5072588;28;20072;-76
2022/11/20 00:20:06;;;;;;;12.43;6.47;;;;;;;14.09;72.64;94551.34;5073599;28;20053;-77
2022/11/20 00:22:31;;;;;;;17.67;7.50;;;;;;;13.91;73.10;94509.72;5068648;28;20044;-76
2022/11/20 00:24:57;;;;;;;11.95;6.97;;;;;;;14.03;72.94;94523.25;5040684;28;20032;-76
2022/11/20 00:27:23;;;;;;;8.50;4.32;;;;;;;14.14;70.04;94502.41;5039767;28;20040;-76
2022/11/20 00:29:48;;;;;;;3.95;2.10;;;;;;;14.58;65.71;94504.03;5040208;28;20045;-76
2022/11/20 00:32:13;;;;;;;8.57;3.55;;;;;;;14.54;67.18;94522.56;5059340;28;20058;-76
2022/11/20 00:34:39;;;;;;;11.88;5.53;;;;;;;14.63;69.67;94526.03;5047958;28;20128;-77
2022/11/20 00:37:04;;;;;;;9.98;5.95;;;;;;;14.60;70.28;94520.50;5040101;28;20194;-76
2022/11/20 00:39:30;;;;;;;16.90;6.43;;;;;;;14.36;69.32;94485.47;5039903;28;20075;-76
2022/11/20 00:41:55;;;;;;;13.65;6.45;;;;;;;14.56;71.10;94514.25;5039808;28;20043;-77
2022/11/20 00:44:20;;;;;;;13.52;6.18;;;;;;;14.45;70.26;94487.09;5058059;28;20798;-76
2022/11/20 00:46:46;;;;;;;10.38;4.50;;;;;;;14.27;69.72;94496.91;5039315;28;20044;-76
2022/11/20 00:49:11;;;;;;;10.80;4.70;;;;;;;14.29;69.33;94485.94;5058073;28;20467;-77
2022/11/20 00:51:36;;;;;;;12.45;5.10;;;;;;;14.60;68.23;94517.84;5058156;28;20040;-76
2022/11/20 00:54:02;;;;;;;10.50;4.47;;;;;;;14.26;69.00;94473.25;5058071;28;20387;-76
2022/11/20 00:56:28;;;;;;;10.88;4.70;;;;;;;14.57;68.80;94542.50;5039891;28;20044;-76
2022/11/20 00:58:54;;;;;;;8.75;4.60;;;;;;;14.65;68.53;94537.13;5056721;28;20079;-76
2022/11/20 01:01:23;;;;;;;13.77;4.63;;;;;;;14.69;68.09;94505.28;5033920;28;20048;-76
2022/11/20 01:03:50;;;;;;;6.93;3.28;;;;;;;14.68;66.57;94501.03;5063026;28;20408;-77
2022/11/20 01:06:24;;;;;;;7.55;3.65;;;;;;;14.74;67.35;94493.66;5039902;28;20106;-76
2022/11/20 01:08:52;;;;;;;8.40;3.42;;;;;;;14.47;66.49;94474.22;5063306;28;20130;-76
2022/11/20 01:11:29;;;;;;;10.65;3.63;;;;;;;14.84;66.55;94533.38;5057235;28;20043;-76
2022/11/20 01:13:57;;;;;;;7.30;3.28;;;;;;;14.85;65.87;94492.25;5052527;28;20099;-77
2022/11/20 01:16:44;;;;;;;8.07;3.30;;;;;;;14.46;65.66;94440.63;5050654;28;20036;-76
2022/11/20 01:19:13;;;;;;;6.18;2.70;;;;;;;15.00;64.32;94502.44;5056712;28;20130;-76
2022/11/20 01:21:41;;;;;;;10.02;2.70;;;;;;;14.94;64.11;94493.81;5057498;28;20060;-77
2022/11/20 01:24:15;;;;;;;3.72;2.05;;;;;;;15.17;62.62;94481.03;5057567;28;20052;-76
2022/11/20 01:26:42;;;;;;;8.90;1.65;;;;;;;15.17;61.07;94473.03;5057462;28;20620;-77
2022/11/20 01:29:15;;;;;;;2.22;1.30;;;;;;;15.14;61.65;94430.13;5039259;28;20438;-76
2022/11/20 01:31:41;;;;;;;3.60;1.50;;;;;;;14.91;60.85;94402.88;5053642;28;20058;-77
2022/11/20 01:34:10;;;;;;;5.68;1.77;;;;;;;15.20;59.26;94418.94;5044178;28;20789;-76
2022/11/20 01:36:37;;;;;;;4.20;1.52;;;;;;;15.58;59.16;94423.50;5044753;28;20051;-77
2022/11/20 01:39:10;;;;;;;6.43;1.90;;;;;;;15.76;60.16;94471.22;5039780;28;20113;-77
2022/11/20 01:44:57;;;;;;;11.13;2.60;;;;;;;15.49;60.44;94404.81;5059802;28;20047;-76
2022/11/20 01:47:28;;;;;;;5.43;2.30;;;;;;;15.93;60.39;94472.25;5069996;28;20047;-76
2022/11/20 01:50:18;;;;;;;6.93;2.70;;;;;;;15.91;60.70;94474.44;5052073;28;20143;-76
2022/11/20 01:52:57;;;;;;;10.63;2.53;;;;;;;15.50;61.50;94410.94;5051752;28;20041;-76
2022/11/20 01:55:27;;;;;;;7.13;2.97;;;;;;;15.55;61.75;94443.66;5069784;28;20037;-76
2022/11/20 01:57:53;;;;;;;7.15;1.88;;;;;;;15.81;58.87;94468.38;5069984;28;20028;-76
2022/11/20 02:00:20;;;;;;;5.20;1.63;;;;;;;15.86;59.01;94464.75;5070914;28;20426;-76
2022/11/20 02:02:58;;;;;;;5.90;1.38;;;;;;;15.61;59.41;94431.69;5051832;28;20051;-76
2022/11/20 02:05:42;;;;;;;4.50;1.45;;;;;;;15.52;59.06;94401.50;5069322;28;20515;-76
2022/11/20 02:08:08;;;;;;;3.22;1.60;;;;;;;15.90;59.46;94472.88;5066659;28;20495;-77
2022/11/20 02:10:34;;;;;;;6.55;1.58;;;;;;;15.92;59.09;94452.75;5068303;28;20039;-76
2022/11/20 02:15:44;;;;;;;4.13;1.80;;;;;;;15.97;59.38;94473.94;5069877;28;20054;-77
2022/11/20 02:18:13;;;;;;;6.15;1.58;;;;;;;15.64;58.45;94420.34;5051471;28;20071;-77
2022/11/20 02:20:42;;;;;;;6.35;2.33;;;;;;;15.37;58.30;94392.16;5060590;28;20064;-77
2022/11/20 02:23:30;;;;;;;3.40;1.40;;;;;;;16.10;57.57;94482.81;5046224;28;20499;-76
2022/11/20 02:25:56;;;;;;;5.13;1.70;;;;;;;16.04;58.83;94470.75;5069115;28;20039;-76
2022/11/20 02:28:22;;;;;;;6.03;1.35;;;;;;;15.83;57.44;94431.41;5070331;28;20138;-76
2022/11/20 02:30:48;;;;;;;4.65;1.42;;;;;;;15.97;57.31;94431.16;5051471;28;20485;-76
2022/11/20 02:33:13;;;;;;;4.70;1.85;;;;;;;16.19;57.94;94480.88;5069280;28;20049;-76
2022/11/20 02:35:42;;;;;;;5.03;1.35;;;;;;;15.98;56.84;94427.38;5068948;28;20464;-76
2022/11/20 02:38:08;;;;;;;6.20;1.25;;;;;;;16.03;57.12;94443.22;5057768;28;20059;-76
2022/11/20 02:40:33;;;;;;;3.53;1.50;;;;;;;16.20;56.99;94464.50;5066666;28;20047;-76
2022/11/20 02:42:58;;;;;;;6.53;2.10;;;;;;;16.06;58.21;94458.63;5064088;28;20048;-76
2022/11/20 02:45:25;;;;;;;6.10;2.25;;;;;;;16.29;57.96;94480.50;5077865;28;20060;-76
2022/11/20 02:47:51;;;;;;;2.72;1.15;;;;;;;16.31;57.73;94497.03;5050980;28;20049;-76
2022/11/20 02:50:16;;;;;;;4.80;1.10;;;;;;;16.13;57.86;94482.19;5070463;28;20098;-77
2022/11/20 02:52:42;;;;;;;5.07;0.80;;;;;;;16.53;56.23;94510.06;5069388;28;20048;-77
2022/11/20 02:55:08;;;;;;;5.53;1.00;;;;;;;16.56;56.42;94496.03;5050575;28;20060;-77
2022/11/20 02:57:34;;;;;;;4.28;1.05;;;;;;;16.45;56.26;94483.38;5069602;28;20075;-75
2022/11/20 02:59:59;;;;;;;3.65;1.08;;;;;;;16.62;56.08;94491.31;5056852;28;20044;-76
2022/11/20 03:02:24;;;;;;;1.92;0.77;;;;;;;16.76;56.58;94517.81;5070379;28;20040;-75
2022/11/20 03:04:50;;;;;;;5.30;1.27;;;;;;;16.51;56.82;94498.91;5070035;28;20106;-75
2022/11/20 03:07:15;;;;;;;5.68;1.70;;;;;;;16.44;56.45;94492.50;5069299;28;20083;-76
2022/11/20 03:09:41;;;;;;;7.00;1.33;;;;;;;16.49;56.27;94478.94;5069797;28;20178;-75
2022/11/20 03:12:06;;;;;;;8.48;1.30;;;;;;;16.51;56.49;94474.03;5052790;28;20051;-75
2022/11/20 03:14:32;;;;;;;4.32;1.30;;;;;;;16.92;56.04;94527.59;5069970;28;20033;-75
2022/11/20 03:16:57;;;;;;;5.63;1.20;;;;;;;16.70;56.47;94506.53;5067269;28;20036;-75
2022/11/20 03:19:23;;;;;;;5.43;1.60;;;;;;;16.67;56.05;94484.97;5056377;28;20036;-75
2022/11/20 03:21:49;;;;;;;5.63;1.30;;;;;;;16.41;55.91;94447.66;5048334;28;20058;-75
2022/11/20 03:24:14;;;;;;;7.82;1.48;;;;;;;17.02;55.76;94537.09;5057894;28;20424;-75
2022/11/20 03:26:40;;;;;;;3.70;1.38;;;;;;;16.80;55.88;94524.06;5066514;28;20055;-76
2022/11/20 03:29:06;;;;;;;4.00;1.65;;;;;;;16.98;55.36;94528.16;5073854;28;20072;-75
2022/11/20 03:31:40;;;;;;;10.68;1.85;;;;;;;16.65;56.09;94476.47;5055269;28;20051;-75
2022/11/20 03:34:06;;;;;;;4.60;0.95;;;;;;;16.79;57.02;94527.84;5067794;28;20055;-75
2022/11/20 03:36:33;;;;;;;3.58;1.08;;;;;;;16.56;56.14;94504.06;5073449;28;20044;-75
2022/11/20 03:38:59;;;;;;;5.47;1.50;;;;;;;16.83;56.31;94548.31;5054851;28;20048;-75
2022/11/20 03:41:30;;;;;;;4.50;1.10;;;;;;;16.91;55.92;94554.69;5084777;28;20051;-76
2022/11/20 03:44:00;;;;;;;7.03;1.48;;;;;;;16.57;56.11;94488.78;5087669;28;20499;-75
2022/11/20 03:46:26;;;;;;;3.13;1.15;;;;;;;16.91;55.63;94555.47;5070444;28;20040;-75
2022/11/20 03:48:52;;;;;;;6.20;1.00;;;;;;;17.07;55.83;94562.91;5084954;28;20411;-75
2022/11/20 03:51:29;;;;;;;6.40;1.35;;;;;;;17.02;55.79;94560.41;5050307;28;20047;-76
2022/11/20 03:53:57;;;;;;;6.85;1.38;;;;;;;17.04;56.39;94548.28;5067242;28;20098;-75
2022/11/20 03:56:25;;;;;;;4.72;1.20;;;;;;;16.95;56.09;94534.94;5088761;28;20039;-76
2022/11/20 03:58:51;;;;;;;2.08;0.98;;;;;;;16.72;56.39;94511.53;5088710;28;20124;-76
2022/11/20 04:01:19;;;;;;;4.60;1.13;;;;;;;16.97;55.93;94548.81;5069695;28;20052;-75
2022/11/20 04:03:45;;;;;;;3.83;1.50;;;;;;;17.00;56.15;94552.72;5054933;28;20044;-75
2022/11/20 04:06:25;;;;;;;4.47;1.38;;;;;;;17.02;55.52;94553.16;5087163;28;20059;-76
2022/11/20 04:08:54;;;;;;;5.00;1.30;;;;;;;17.06;55.28;94561.34;5072512;28;20036;-75
2022/11/20 04:11:24;;;;;;;6.60;1.08;;;;;;;17.08;55.27;94565.28;5083037;28;20042;-76
2022/11/20 04:13:52;;;;;;;6.53;1.33;;;;;;;16.70;55.59;94506.53;5089016;28;20048;-76
2022/11/20 04:16:19;;;;;;;3.42;1.08;;;;;;;16.88;55.04;94539.28;5082476;28;20033;-76
2022/11/20 04:18:45;;;;;;;4.57;1.20;;;;;;;17.00;54.80;94546.59;5056695;28;20384;-75
2022/11/20 04:21:10;;;;;;;6.22;1.30;;;;;;;16.74;55.21;94502.06;5081884;28;20056;-76
2022/11/20 04:23:36;;;;;;;3.45;1.30;;;;;;;16.83;54.69;94513.50;5072147;28;20040;-76
2022/11/20 04:26:04;;;;;;;3.20;0.98;;;;;;;16.87;54.54;94505.56;5072240;28;20041;-76
2022/11/20 04:28:30;;;;;;;4.00;1.02;;;;;;;16.95;55.50;94534.16;5071951;28;20403;-76
2022/11/20 04:31:05;;;;;;;3.05;1.10;;;;;;;16.59;55.37;94478.53;5072843;28;20041;-76
2022/11/20 04:33:31;;;;;;;4.70;0.93;;;;;;;16.70;55.89;94527.94;5072379;28;20477;-77
2022/11/20 04:36:07;;;;;;;2.88;0.98;;;;;;;16.90;55.63;94559.28;5070878;28;20124;-75
2022/11/20 04:38:33;;;;;;;7.03;1.20;;;;;;;16.85;55.90;94572.88;5071744;28;20036;-76
2022/11/20 04:41:04;;;;;;;3.47;1.30;;;;;;;16.92;55.75;94578.47;5056676;28;20052;-75
2022/11/20 04:43:31;;;;;;;5.57;0.85;;;;;;;16.81;56.17;94569.25;5073976;28;20521;-75
2022/11/20 04:45:58;;;;;;;5.40;1.10;;;;;;;16.86;56.34;94576.34;5077551;28;20442;-76
2022/11/20 04:48:24;;;;;;;4.10;0.93;;;;;;;16.67;56.42;94531.25;5077176;28;20522;-75
2022/11/20 04:50:51;;;;;;;7.18;1.48;;;;;;;16.88;56.65;94556.13;5067078;28;20119;-76
2022/11/20 04:53:17;;;;;;;9.50;1.25;;;;;;;16.86;56.99;94566.38;5080091;28;20044;-75
2022/11/20 04:55:43;;;;;;;5.18;1.13;;;;;;;16.85;56.60;94551.44;5080502;28;20499;-75
2022/11/20 04:58:08;;;;;;;2.92;0.90;;;;;;;16.46;57.03;94488.41;5077527;28;20048;-75
2022/11/20 05:00:34;;;;;;;3.65;0.90;;;;;;;16.78;57.52;94551.16;5071601;28;20045;-75
2022/11/20 05:02:59;;;;;;;6.20;1.45;;;;;;;16.29;57.55;94471.69;5081426;28;20127;-75
2022/11/20 05:05:25;;;;;;;4.47;1.30;;;;;;;16.60;57.66;94525.63;5073551;28;20051;-75
2022/11/20 05:07:50;;;;;;;4.20;1.10;;;;;;;16.05;57.85;94445.56;5071043;28;20040;-75
2022/11/20 05:10:16;;;;;;;6.50;1.05;;;;;;;16.25;57.18;94476.91;5060852;28;20040;-75
2022/11/20 05:12:41;;;;;;;3.83;1.23;;;;;;;16.27;57.85;94493.41;5071613;28;20114;-76
2022/11/20 05:15:07;;;;;;;3.13;1.30;;;;;;;15.95;58.12;94440.59;5041871;28;20045;-76
2022/11/20 05:17:32;;;;;;;4.68;1.23;;;;;;;16.45;57.86;94516.28;5070880;28;20131;-75
2022/11/20 05:19:58;;;;;;;3.95;1.20;;;;;;;16.41;58.48;94501.19;5048881;28;20417;-75
2022/11/20 05:22:23;;;;;;;9.30;2.08;;;;;;;16.20;58.56;94479.78;5050678;28;20048;-75
2022/11/20 05:24:49;;;;;;;5.05;1.85;;;;;;;16.19;58.43;94473.63;5052914;28;20537;-75
2022/11/20 05:27:14;;;;;;;4.63;1.40;;;;;;;16.14;58.75;94460.47;5062039;28;20056;-75
2022/11/20 05:29:39;;;;;;;9.07;1.38;;;;;;;15.99;59.45;94458.34;5036994;28;20080;-75
2022/11/20 05:32:07;;;;;;;7.30;1.45;;;;;;;15.64;60.89;94430.25;5037664;28;20462;-75
2022/11/20 05:34:32;;;;;;;7.50;1.30;;;;;;;15.96;61.96;94496.44;5051102;28;20107;-75
2022/11/20 05:36:58;;;;;;;5.78;1.58;;;;;;;15.77;62.54;94477.34;5050826;28;20053;-75
2022/11/20 05:39:23;;;;;;;12.23;1.95;;;;;;;16.12;63.00;94534.09;5051050;28;20032;-75
2022/11/20 05:42:29;;;;;;;4.20;1.52;;;;;;;15.88;63.26;94507.16;5042416;28;20075;-75
2022/11/20 05:44:34;;;;;;;5.90;1.90;;;;;;;15.74;64.05;94492.16;5049708;28;20503;-75
2022/11/20 05:46:59;;;;;;;7.65;1.77;;;;;;;15.69;64.88;94492.34;5050758;28;20049;-75
2022/11/20 05:49:25;;;;;;;5.78;1.40;;;;;;;15.92;65.21;94538.31;5050210;28;20120;-76
2022/11/20 05:51:50;;;;;;;4.15;1.90;;;;;;;15.50;65.48;94472.41;5050213;28;20037;-76
2022/11/20 05:54:15;;;;;;;3.72;1.45;;;;;;;15.38;65.21;94462.41;5053982;28;20087;-76
2022/11/20 05:56:41;;;;;;;4.85;1.40;;;;;;;15.57;65.17;94478.84;5060699;28;20067;-75
2022/11/20 05:59:07;;;;;;;6.70;1.75;;;;;;;15.80;65.48;94532.84;5045872;28;20037;-76
2022/11/20 06:01:32;;;;;;;7.50;1.58;;;;;;;15.80;65.43;94533.63;5060382;28;20049;-75
2022/11/20 06:03:57;;;;;;;7.43;1.45;;;;;;;15.58;65.29;94496.47;5049009;28;20056;-75
2022/11/20 06:06:23;;;;;;;10.32;2.10;;;;;;;15.86;65.03;94536.94;5048389;28;20051;-76
2022/11/20 06:08:49;;;;;;;7.95;2.30;;;;;;;15.32;64.56;94456.47;5045926;28;20475;-76
2022/11/20 06:11:15;;;;;;;4.88;1.20;;;;;;;15.82;64.73;94527.97;5055121;28;20060;-75
2022/11/20 06:13:41;;;;;;;4.25;1.50;;;;;;;15.85;64.75;94527.34;5050408;28;20041;-76
2022/11/20 06:16:07;;;;;;;4.82;1.65;;;;;;;15.51;64.45;94495.34;5043367;28;20045;-75
2022/11/20 06:18:32;;;;;;;7.63;2.08;;;;;;;15.68;64.50;94520.16;5050148;28;20037;-75
2022/11/20 06:21:03;;;;;;;5.93;1.38;;;;;;;15.79;64.72;94525.94;5061028;28;20088;-75
2022/11/20 06:23:30;;;;;;;6.22;1.77;;;;;;;15.78;64.47;94521.72;5067129;28;20494;-75
2022/11/20 06:25:56;;;;;;;8.68;1.30;;;;;;;15.88;63.98;94534.69;5083518;28;20112;-75
2022/11/20 06:28:21;;;;;;;10.52;1.88;;;;;;;15.94;64.24;94548.69;5051415;28;20156;-75
2022/11/20 06:30:47;;;;;;;7.20;2.03;;;;;;;15.79;63.89;94526.72;5070219;28;20032;-75
2022/11/20 06:33:12;;;;;;;4.68;1.40;;;;;;;15.94;64.42;94554.81;5055235;28;20064;-75
2022/11/20 06:35:38;;;;;;;8.75;1.90;;;;;;;15.97;63.85;94545.34;5080528;28;20044;-75
2022/11/20 06:38:03;;;;;;;10.85;1.83;;;;;;;15.61;63.61;94479.00;5051568;28;20127;-75
2022/11/20 06:40:28;;;;;;;7.88;2.10;;;;;;;16.02;63.81;94537.94;5070128;28;20051;-75
2022/11/20 06:42:54;;;;;;;5.90;1.60;;;;;;;15.76;63.49;94495.28;5051655;28;20051;-75
2022/11/20 06:45:20;;;;;;;8.73;1.55;;;;;;;16.01;63.71;94535.59;5052476;28;20044;-75
2022/11/20 06:47:46;;;;;;;6.20;1.77;;;;;;;16.07;63.88;94545.78;5052197;28;20041;-75
2022/11/20 06:50:11;;;;;;;11.77;1.77;;;;;;;15.68;63.57;94481.97;5070946;28;20111;-75
2022/11/20 06:52:37;;;;;;;5.50;1.92;;;;;;;16.22;63.21;94544.44;5070332;28;20047;-75
2022/11/20 06:55:02;;;;;;;6.78;1.33;;;;;;;15.87;63.30;94508.31;5069670;28;20816;-76
2022/11/20 06:57:28;;;;;;;16.15;1.95;;;;;;;16.07;63.07;94537.75;5055174;28;20052;-75
2022/11/20 06:59:53;;;;;;;11.00;1.60;;;;;;;15.62;62.76;94472.56;5073329;28;20170;-75
2022/11/20 07:02:19;;;;;;;7.25;1.52;;;;;;;15.79;62.77;94497.31;5055461;28;20040;-76
2022/11/20 07:04:44;;;;;;;6.20;1.50;;;;;;;16.14;62.84;94561.31;5075006;28;20492;-75
2022/11/20 07:07:09;;;;;;;3.17;1.23;;;;;;;16.27;62.51;94571.00;5073192;28;20039;-75
2022/11/20 07:09:35;;;;;;;7.05;1.85;;;;;;;16.21;61.87;94567.72;5067181;28;20039;-75
2022/11/20 07:12:00;;;;;;;5.85;1.50;;;;;;;16.24;62.13;94569.00;5055025;28;20064;-75
2022/11/20 07:14:26;;;;;;;7.78;1.50;;;;;;;16.33;61.60;94580.41;5054941;28;20153;-75
2022/11/20 07:16:51;;;;;;;10.23;1.95;;;;;;;16.37;61.39;94575.22;5073980;28;20427;-75
2022/11/20 07:19:16;;;;;;;4.78;1.33;;;;;;;16.32;61.60;94578.06;5055294;28;20045;-76
2022/11/20 07:21:43;;;;;;;8.95;2.40;;;;;;;16.25;61.30;94570.53;5072789;28;20045;-76
2022/11/20 07:24:08;;;;;;;6.95;2.38;;;;;;;16.15;61.89;94568.25;5072569;28;20079;-75
2022/11/20 07:26:34;;;;;;;5.00;1.50;;;;;;;16.28;61.54;94582.50;5073433;28;20068;-75
2022/11/20 07:28:59;;;;;;;9.05;1.55;;;;;;;16.37;61.18;94578.66;5073776;28;20482;-76
2022/11/20 07:31:24;;;;;;;5.60;1.65;;;;;;;15.99;61.19;94519.09;5072967;28;20044;-76
2022/11/20 07:33:50;;;;;;;4.90;1.98;;;;;;;15.98;61.25;94537.00;5072476;28;20040;-76
2022/11/20 07:36:15;;;;;;;11.65;2.33;;;;;;;16.38;61.37;94590.16;5088509;28;20047;-75
2022/11/20 07:38:41;;;;;;;5.60;1.90;;;;;;;15.92;60.89;94513.47;5073707;28;20032;-76
2022/11/20 07:41:06;;;;;;;7.75;1.90;;;;;;;16.17;60.97;94542.72;5070364;28;20041;-76
2022/11/20 07:43:31;;;;;;;5.03;1.55;;;;;;;16.27;60.87;94562.97;5054693;28;20040;-76
2022/11/20 07:45:58;;;;;;;6.82;2.00;;;;;;;16.08;61.09;94527.84;5051476;28;20044;-76
2022/11/20 07:48:24;;;;;;;7.25;2.47;;;;;;;16.39;60.90;94583.69;5070883;28;20517;-76
2022/11/20 07:50:54;;;;;;;7.18;1.77;;;;;;;16.37;60.75;94569.84;5073378;28;20048;-76
2022/11/20 07:53:21;;;;;;;9.10;2.28;;;;;;;16.40;60.30;94582.59;5072616;28;20047;-76
2022/11/20 07:55:47;;;;;;;8.95;2.30;;;;;;;15.98;60.32;94509.50;5054938;28;20493;-75
2022/11/20 07:58:13;;;;;;;5.68;1.63;;;;;;;16.32;61.29;94589.56;5085186;28;20043;-76
2022/11/20 08:00:39;;;;;;;6.13;2.15;;;;;;;15.87;61.08;94517.09;5054648;28;20415;-76
2022/11/20 08:03:05;;;;;;;6.13;2.03;;;;;;;16.02;60.82;94518.44;5083145;28;20185;-75
2022/11/20 08:05:30;;;;;;;5.50;1.95;;;;;;;16.06;61.10;94533.50;5083384;28;20365;-76
2022/11/20 08:07:55;;;;;;;8.00;2.60;;;;;;;16.23;61.16;94558.59;5066056;28;20609;-76
2022/11/20 08:10:21;;;;;;;10.20;2.30;;;;;;;15.98;61.52;94518.28;5084646;28;20043;-76
2022/11/20 08:15:35;;;;;;;9.40;2.40;;;;;;;16.09;61.60;94516.03;5060249;28;20044;-76
2022/11/20 08:18:06;;;;;;;7.60;2.50;;;;;;;16.40;61.37;94571.88;5075419;28;20040;-76
2022/11/20 08:20:32;;;;;;;18.95;2.83;;;;;;;16.23;61.38;94537.19;5081072;28;20127;-76
2022/11/20 08:22:59;;;;;;;7.50;2.50;;;;;;;16.39;61.41;94554.25;5054102;28;20036;-76
2022/11/20 08:25:25;;;;;;;13.70;2.28;;;;;;;16.00;61.16;94529.47;5054309;28;20051;-76
2022/11/20 08:27:51;;;;;;;7.47;1.52;;;;;;;16.02;60.70;94532.56;5071632;28;20040;-76
2022/11/20 08:30:16;;;;;;;12.48;2.05;;;;;;;16.11;60.75;94533.31;5053613;28;20087;-76
2022/11/20 08:32:42;;;;;;;12.77;1.80;;;;;;;16.05;60.38;94531.94;5053820;28;20106;-76
2022/11/20 08:35:08;;;;;;;16.10;2.42;;;;;;;16.35;60.34;94580.09;5071656;28;20048;-76
2022/11/20 08:37:33;;;;;;;7.95;2.17;;;;;;;16.37;60.68;94589.38;5071094;28;20036;-76
2022/11/20 08:39:58;;;;;;;14.35;2.60;;;;;;;16.29;60.34;94578.72;5071779;28;20072;-76
2022/11/20 08:42:24;;;;;;;8.45;2.53;;;;;;;16.37;59.79;94596.59;5071608;28;20052;-76
2022/11/20 08:44:49;;;;;;;10.45;3.53;;;;;;;16.07;60.39;94561.84;5071048;28;20144;-76
2022/11/20 08:47:14;;;;;;;11.65;3.10;;;;;;;16.27;60.70;94599.66;5067000;28;20044;-76
2022/11/20 08:49:40;;;;;;;15.48;3.25;;;;;;;16.05;61.02;94584.66;5071407;28;20563;-76
2022/11/20 08:52:05;;;;;;;10.13;2.70;;;;;;;15.94;60.73;94580.78;5071221;28;20036;-76
2022/11/20 08:54:31;;;;;;;10.68;2.90;;;;;;;16.32;61.08;94631.59;5071641;28;20041;-76
2022/11/20 08:56:56;;;;;;;8.52;2.75;;;;;;;16.26;61.09;94608.78;5068686;28;20518;-76
2022/11/20 08:59:22;;;;;;;12.98;2.90;;;;;;;16.53;61.52;94633.22;5048742;28;20079;-76
2022/11/20 09:01:47;;;;;;;14.57;2.60;;;;;;;16.46;62.42;94621.44;5046367;28;20489;-76
2022/11/20 09:04:14;;;;;;;10.10;2.65;;;;;;;16.47;63.51;94628.38;5063019;28;20089;-76
2022/11/20 09:06:40;;;;;;;7.90;2.30;;;;;;;16.38;66.03;94635.66;5071424;28;20036;-76
2022/11/20 09:09:05;;;;;;;8.48;2.35;;;;;;;16.30;64.43;94621.19;5071012;28;20485;-76
2022/11/20 09:11:31;;;;;;;12.77;2.10;;;;;;;16.02;64.20;94577.28;5070854;28;20044;-76
2022/11/20 09:13:57;;;;;;;11.80;2.28;;;;;;;16.33;64.17;94619.75;5052454;28;20047;-75
2022/11/20 09:16:22;;;;;;;5.68;2.22;;;;;;;16.28;65.47;94611.91;5071235;28;20036;-76
2022/11/20 09:18:50;;;;;;;17.42;4.07;;;;;;;16.19;66.52;94601.25;5039128;28;20183;-76
2022/11/20 09:21:16;;;;;;;15.55;3.53;;;;;;;16.20;67.95;94613.53;5055919;28;20037;-76
2022/11/20 09:23:42;;;;;;;16.70;3.75;;;;;;;16.16;70.45;94647.41;5084948;28;20419;-77
2022/11/20 09:26:10;;;;;;;5.53;1.33;;;;;;;15.12;64.10;94549.84;5070964;28;20041;-77
2022/11/20 09:28:36;;;;;;;6.38;1.60;;;;;;;15.43;67.21;94631.34;5074548;28;20091;-77
2022/11/20 09:31:09;;;;;;;3.08;1.58;;;;;;;15.44;68.64;94646.28;5071271;28;20479;-77
2022/11/20 09:33:35;;;;;;;3.67;1.40;;;;;;;14.98;67.38;94590.06;5064146;28;20047;-77
2022/11/20 09:36:01;;;;;;;5.60;1.48;;;;;;;14.98;67.90;94592.72;5069247;28;20043;-77
2022/11/20 09:38:26;;;;;;;9.55;1.90;;;;;;;14.80;71.56;94580.50;5069387;28;20032;-77
2022/11/20 09:40:57;;;;;;;6.43;1.67;;;;;;;15.08;72.80;94621.81;5070472;28;20090;-77
2022/11/20 09:43:26;;;;;;;;;;;;;;;15.09;70.98;94604.69;5052912;28;20044;-77
2022/11/20 09:46:18;;;;;;;6.65;2.10;;;;;;;15.10;73.48;94605.47;5058334;28;19952;-76
2022/11/20 09:49:02;;;;;;;5.57;1.45;;;;;;;15.11;74.42;94599.00;5039368;28;20422;-76
2022/11/20 09:51:53;;;;;;;7.95;2.10;;;;;;;15.14;73.43;94595.72;5056257;28;20044;-76
2022/11/20 09:54:21;;;;;;;4.70;2.67;;;;;;;14.64;74.92;94527.59;5037005;28;20052;-76
2022/11/20 09:56:55;;;;;;;6.70;2.50;;;;;;;15.02;75.21;94551.75;5065722;28;20310;-76
2022/11/20 09:59:27;;;;;;;8.32;2.75;;;;;;;15.35;75.75;94586.72;5033437;28;20036;-76
2022/11/20 10:01:55;;;;;;;14.27;3.78;;;;;;;15.32;76.00;94574.00;5048003;28;20051;-77
2022/11/20 10:04:21;;;;;;;21.98;4.82;;;;;;;15.58;75.27;94583.88;5051709;28;20040;-77
2022/11/20 10:06:52;;;;;;;13.38;4.13;;;;;;;15.47;76.59;94572.72;5051519;28;20414;-77
2022/11/20 10:09:26;;;;;;;16.70;4.10;;;;;;;15.43;76.04;94574.44;5069042;28;20037;-77
2022/11/20 10:12:18;;;;;;;17.80;4.88;;;;;;;15.56;76.12;94586.09;5051944;28;20028;-77
2022/11/20 10:15:22;;;;;;;12.85;4.68;;;;;;;15.64;76.00;94586.03;5070179;28;20067;-76
2022/11/20 10:17:50;;;;;;;13.55;4.47;;;;;;;15.68;76.06;94570.16;5055356;28;20049;-76
2022/11/20 10:20:25;;;;;;;14.70;5.40;;;;;;;15.25;76.68;94506.94;5051045;28;20084;-76
2022/11/20 10:22:50;;;;;;;11.65;4.78;;;;;;;15.63;75.35;94565.00;5056166;28;20040;-76
2022/11/20 10:25:21;;;;;;;17.02;5.00;;;;;;;15.20;75.37;94508.97;5083359;28;20102;-76
2022/11/20 10:28:03;;;;;;;11.38;4.20;;;;;;;15.59;74.74;94534.66;5069536;28;20735;-76
2022/11/20 10:30:31;;;;;;;12.60;4.20;;;;;;;15.17;74.01;94482.91;5051855;28;20049;-76
2022/11/20 10:33:23;;;;;;;11.55;4.35;;;;;;;15.31;73.99;94531.59;5069834;28;20557;-76
2022/11/20 10:36:10;;;;;;;14.20;4.47;;;;;;;15.50;73.96;94541.88;5068201;28;20483;-76
2022/11/20 10:38:39;;;;;;;12.35;4.07;;;;;;;15.59;73.68;94569.41;5057382;28;20068;-76
2022/11/20 10:41:24;;;;;;;11.13;4.60;;;;;;;15.07;73.79;94494.72;5075530;28;20423;-76
2022/11/20 10:43:56;;;;;;;14.10;5.00;;;;;;;15.20;76.82;94557.84;5058086;28;20154;-76
2022/11/20 10:46:23;;;;;;;20.77;5.55;;;;;;;15.38;76.59;94582.63;5076398;28;20056;-76
2022/11/20 10:48:50;;;;;;;12.38;5.15;;;;;;;15.21;76.43;94545.25;5076400;28;20513;-76
2022/11/20 10:51:30;;;;;;;15.63;5.53;;;;;;;15.48;76.90;94579.63;5075145;28;20051;-76
2022/11/20 10:54:12;;;;;;;22.40;5.25;;;;;;;15.48;77.10;94562.81;5074900;28;20052;-76
2022/11/20 10:56:46;;;;;;;14.20;5.25;;;;;;;15.56;76.60;94576.19;5074730;28;20050;-76
2022/11/20 10:59:49;;;;;;;13.32;5.35;;;;;;;15.48;76.81;94598.34;5073366;28;20032;-75
2022/11/20 11:02:20;;;;;;;27.55;9.50;;;;;;;15.16;77.98;94556.91;5070237;28;20435;-76
2022/11/20 11:04:47;;;;;;;;;;;;;;;15.23;78.19;94591.16;5076123;28;20492;-78
2022/11/20 11:07:22;;;;;;;22.38;8.00;;;;;;;15.33;79.04;94598.84;5075928;28;19960;-76
2022/11/20 11:09:54;;;;;;;18.38;6.03;;;;;;;15.13;80.71;94624.31;5057193;28;20440;-76
2022/11/20 11:12:25;;;;;;;13.15;3.75;;;;;;;14.07;80.16;94553.53;5081034;28;20093;-76
2022/11/20 11:14:57;;;;;;;16.02;3.85;;;;;;;13.84;78.92;94600.81;5079839;28;20048;-77
2022/11/20 11:17:27;;;;;;;26.42;4.68;;;;;;;13.82;82.95;94672.28;5079037;28;20082;-76
2022/11/20 11:20:05;;;;;;;16.38;3.17;;;;;;;13.55;77.88;94651.13;5057900;28;20045;-77
2022/11/20 11:22:34;;;;;;;7.97;1.88;;;;;;;13.44;76.73;94655.13;5062736;28;20102;-77
2022/11/20 11:24:59;;;;;;;3.55;1.35;;;;;;;12.98;74.41;94621.53;5077625;28;20105;-77
2022/11/20 11:27:25;;;;;;;6.68;1.83;;;;;;;12.64;75.82;94573.38;5075760;28;20060;-77
2022/11/20 11:30:02;;;;;;;7.80;2.17;;;;;;;13.00;79.72;94627.38;5074812;28;20045;-77
2022/11/20 11:32:28;;;;;;;4.40;1.63;;;;;;;12.86;77.76;94617.84;5057002;28;20044;-77
2022/11/20 11:35:02;;;;;;;8.55;1.50;;;;;;;12.35;78.92;94563.13;5075225;28;20052;-76
2022/11/20 11:37:33;;;;;;;4.25;1.20;;;;;;;12.63;79.73;94604.53;5056566;28;20044;-77
2022/11/20 11:39:59;;;;;;;7.05;1.63;;;;;;;12.79;81.03;94620.16;5076316;28;20047;-76
2022/11/20 11:42:25;;;;;;;5.63;1.13;;;;;;;12.71;80.09;94618.97;5073522;28;20422;-76
2022/11/20 11:45:06;;;;;;;5.40;1.30;;;;;;;12.60;78.62;94594.47;5072095;28;20044;-76